sensor_id;sensor_type;location;lat;lon;timestamp;pressure;altitude;pressure_sealevel;temperature;humidity
28312;BME280;15572;48.810;9.148;2023-10-19T00:02:28;96515.38;;;10.94;100.00
28312;BME280;15572;48.810;9.148;2023-10-19T00:07:26;96513.13;;;11.03;100.00
28312;BME280;15572;48.810;9.148;2023-10-19T00:12:22;96506.97;;;11.08;100.00
28312;BME280;15572;48.810;9.148;2023-10-19T00:17:19;96509.22;;;11.11;100.00
28312;BME280;15572;48.810;9.148;2023-10-19T00:22:17;96512.72;;;11.11;100.00
28312;BME280;15572;48.810;9.148;2023-10-19T00:27:16;96502.72;;;11.12;100.00
28312;BME280;15572;48.810;9.148;2023-10-19T00:32:15;96509.78;;;11.13;100.00
28312;BME280;15572;48.810;9.148;2023-10-19T00:37:14;96514.75;;;11.16;100.00
28312;BME280;15572;48.810;9.148;2023-10-19T00:42:16;96507.78;;;11.20;100.00
28312;BME280;15572;48.810;9.148;2023-10-19T00:47:18;96495.84;;;11.49;100.00
28312;BME280;15572;48.810;9.148;2023-10-19T00:52:19;96477.13;;;11.76;100.00
28312;BME280;15572;48.810;9.148;2023-10-19T00:57:20;96464.84;;;12.02;100.00
28312;BME280;15572;48.810;9.148;2023-10-19T01:02:27;96447.31;;;12.26;100.00
28312;BME280;15572;48.810;9.148;2023-10-19T01:07:25;96440.66;;;12.34;100.00
28312;BME280;15572;48.810;9.148;2023-10-19T01:12:26;96444.50;;;12.38;100.00
28312;BME280;15572;48.810;9.148;2023-10-19T01:17:28;96436.34;;;12.38;100.00
28312;BME280;15572;48.810;9.148;2023-10-19T01:22:26;96426.31;;;12.38;100.00
28312;BME280;15572;48.810;9.148;2023-10-19T01:27:24;96428.47;;;12.36;100.00
28312;BME280;15572;48.810;9.148;2023-10-19T01:32:20;96423.28;;;12.35;100.00
28312;BME280;15572;48.810;9.148;2023-10-19T01:37:18;96409.97;;;12.33;100.00
28312;BME280;15572;48.810;9.148;2023-10-19T01:42:15;96411.28;;;12.31;100.00
28312;BME280;15572;48.810;9.148;2023-10-19T01:47:14;96412.72;;;12.16;100.00
28312;BME280;15572;48.810;9.148;2023-10-19T01:52:11;96412.97;;;11.98;100.00
28312;BME280;15572;48.810;9.148;2023-10-19T01:57:07;96408.22;;;11.89;100.00
28312;BME280;15572;48.810;9.148;2023-10-19T02:02:04;96400.00;;;11.84;100.00
28312;BME280;15572;48.810;9.148;2023-10-19T02:07:07;96406.19;;;11.79;100.00
28312;BME280;15572;48.810;9.148;2023-10-19T02:12:08;96398.78;;;11.74;100.00
28312;BME280;15572;48.810;9.148;2023-10-19T02:17:04;96390.91;;;11.73;100.00
28312;BME280;15572;48.810;9.148;2023-10-19T02:22:02;96382.97;;;11.71;100.00
28312;BME280;15572;48.810;9.148;2023-10-19T02:27:04;96380.50;;;11.70;100.00
28312;BME280;15572;48.810;9.148;2023-10-19T02:32:00;96372.63;;;11.68;100.00
28312;BME280;15572;48.810;9.148;2023-10-19T02:36:59;96368.28;;;11.67;100.00
28312;BME280;15572;48.810;9.148;2023-10-19T02:41:56;96369.56;;;11.65;100.00
28312;BME280;15572;48.810;9.148;2023-10-19T02:46:57;96364.91;;;11.60;100.00
28312;BME280;15572;48.810;9.148;2023-10-19T02:51:54;96369.19;;;11.56;100.00
28312;BME280;15572;48.810;9.148;2023-10-19T02:56:58;96357.44;;;11.51;100.00
28312;BME280;15572;48.810;9.148;2023-10-19T03:01:56;96365.72;;;11.44;100.00
28312;BME280;15572;48.810;9.148;2023-10-19T03:06:57;96360.50;;;11.37;100.00
28312;BME280;15572;48.810;9.148;2023-10-19T03:11:56;96350.03;;;11.29;100.00
28312;BME280;15572;48.810;9.148;2023-10-19T03:16:55;96347.75;;;11.21;100.00
28312;BME280;15572;48.810;9.148;2023-10-19T03:21:52;96334.91;;;11.17;100.00
28312;BME280;15572;48.810;9.148;2023-10-19T03:26:52;96333.22;;;11.11;100.00
28312;BME280;15572;48.810;9.148;2023-10-19T03:31:49;96322.84;;;11.08;100.00
28312;BME280;15572;48.810;9.148;2023-10-19T03:36:46;96319.00;;;11.04;100.00
28312;BME280;15572;48.810;9.148;2023-10-19T03:41:43;96316.75;;;11.01;100.00
28312;BME280;15572;48.810;9.148;2023-10-19T03:46:42;96321.03;;;10.96;100.00
28312;BME280;15572;48.810;9.148;2023-10-19T03:51:48;96322.34;;;10.94;100.00
28312;BME280;15572;48.810;9.148;2023-10-19T03:56:58;96322.00;;;10.90;100.00
28312;BME280;15572;48.810;9.148;2023-10-19T04:02:00;96305.19;;;10.88;100.00
28312;BME280;15572;48.810;9.148;2023-10-19T04:07:02;96292.72;;;10.87;100.00
28312;BME280;15572;48.810;9.148;2023-10-19T04:12:06;96292.94;;;10.86;100.00
28312;BME280;15572;48.810;9.148;2023-10-19T04:17:07;96285.09;;;10.84;100.00
28312;BME280;15572;48.810;9.148;2023-10-19T04:22:07;96271.44;;;10.79;100.00
28312;BME280;15572;48.810;9.148;2023-10-19T04:27:06;96276.31;;;10.77;100.00
28312;BME280;15572;48.810;9.148;2023-10-19T04:32:04;96272.78;;;10.77;100.00
28312;BME280;15572;48.810;9.148;2023-10-19T04:37:03;96269.25;;;10.76;100.00
28312;BME280;15572;48.810;9.148;2023-10-19T04:42:00;96268.66;;;10.74;100.00
28312;BME280;15572;48.810;9.148;2023-10-19T04:46:56;96270.53;;;10.74;100.00
28312;BME280;15572;48.810;9.148;2023-10-19T04:51:53;96260.22;;;10.71;100.00
28312;BME280;15572;48.810;9.148;2023-10-19T04:56:51;96258.25;;;10.66;100.00
28312;BME280;15572;48.810;9.148;2023-10-19T05:01:50;96257.09;;;10.62;100.00
28312;BME280;15572;48.810;9.148;2023-10-19T05:06:47;96247.78;;;10.58;100.00
28312;BME280;15572;48.810;9.148;2023-10-19T05:11:43;96247.00;;;10.58;100.00
28312;BME280;15572;48.810;9.148;2023-10-19T05:16:42;96262.41;;;10.57;100.00
28312;BME280;15572;48.810;9.148;2023-10-19T05:21:39;96259.13;;;10.55;100.00
28312;BME280;15572;48.810;9.148;2023-10-19T05:26:35;96259.13;;;10.55;100.00
28312;BME280;15572;48.810;9.148;2023-10-19T05:31:31;96267.47;;;10.53;100.00
28312;BME280;15572;48.810;9.148;2023-10-19T05:36:30;96273.13;;;10.52;100.00
28312;BME280;15572;48.810;9.148;2023-10-19T05:41:27;96252.88;;;10.54;100.00
28312;BME280;15572;48.810;9.148;2023-10-19T05:46:26;96258.63;;;10.58;100.00
28312;BME280;15572;48.810;9.148;2023-10-19T05:51:24;96267.41;;;10.65;100.00
28312;BME280;15572;48.810;9.148;2023-10-19T05:56:23;96258.00;;;10.68;100.00
28312;BME280;15572;48.810;9.148;2023-10-19T06:01:19;96268.09;;;10.72;100.00
28312;BME280;15572;48.810;9.148;2023-10-19T06:06:17;96274.97;;;10.80;100.00
28312;BME280;15572;48.810;9.148;2023-10-19T06:11:15;96280.84;;;10.88;100.00
28312;BME280;15572;48.810;9.148;2023-10-19T06:16:13;96283.63;;;10.93;100.00
28312;BME280;15572;48.810;9.148;2023-10-19T06:21:10;96284.28;;;11.01;100.00
28312;BME280;15572;48.810;9.148;2023-10-19T06:26:11;96285.53;;;11.10;100.00
28312;BME280;15572;48.810;9.148;2023-10-19T06:31:07;96289.16;;;11.15;100.00
28312;BME280;15572;48.810;9.148;2023-10-19T06:36:06;96289.69;;;11.17;100.00
28312;BME280;15572;48.810;9.148;2023-10-19T06:41:10;96277.88;;;11.23;100.00
28312;BME280;15572;48.810;9.148;2023-10-19T06:46:07;96283.97;;;11.30;100.00
28312;BME280;15572;48.810;9.148;2023-10-19T06:51:08;96279.22;;;11.37;100.00
28312;BME280;15572;48.810;9.148;2023-10-19T06:56:04;96282.09;;;11.48;100.00
28312;BME280;15572;48.810;9.148;2023-10-19T07:01:01;96277.88;;;11.57;100.00
28312;BME280;15572;48.810;9.148;2023-10-19T07:06:03;96266.28;;;11.61;100.00
28312;BME280;15572;48.810;9.148;2023-10-19T07:11:03;96269.31;;;11.65;100.00
28312;BME280;15572;48.810;9.148;2023-10-19T07:16:00;96266.66;;;11.70;100.00
28312;BME280;15572;48.810;9.148;2023-10-19T07:20:58;96274.09;;;11.74;100.00
28312;BME280;15572;48.810;9.148;2023-10-19T07:25:58;96274.72;;;11.81;100.00
28312;BME280;15572;48.810;9.148;2023-10-19T07:30:57;96266.41;;;11.88;100.00
28312;BME280;15572;48.810;9.148;2023-10-19T07:35:54;96269.50;;;11.97;100.00
28312;BME280;15572;48.810;9.148;2023-10-19T07:40:51;96259.06;;;12.05;100.00
28312;BME280;15572;48.810;9.148;2023-10-19T07:45:49;96258.06;;;12.11;100.00
28312;BME280;15572;48.810;9.148;2023-10-19T07:50:48;96259.06;;;12.27;100.00
28312;BME280;15572;48.810;9.148;2023-10-19T07:55:45;96246.97;;;12.40;100.00
28312;BME280;15572;48.810;9.148;2023-10-19T08:00:41;96252.78;;;12.48;100.00
28312;BME280;15572;48.810;9.148;2023-10-19T08:05:39;96247.97;;;12.55;100.00
28312;BME280;15572;48.810;9.148;2023-10-19T08:10:38;96242.84;;;12.59;100.00
28312;BME280;15572;48.810;9.148;2023-10-19T08:15:35;96241.28;;;12.63;100.00
28312;BME280;15572;48.810;9.148;2023-10-19T08:20:31;96238.66;;;12.73;100.00
28312;BME280;15572;48.810;9.148;2023-10-19T08:25:32;96246.63;;;12.85;100.00
28312;BME280;15572;48.810;9.148;2023-10-19T08:30:30;96251.97;;;13.01;100.00
28312;BME280;15572;48.810;9.148;2023-10-19T08:35:26;96248.31;;;13.18;100.00
28312;BME280;15572;48.810;9.148;2023-10-19T08:40:25;96244.91;;;13.32;100.00
28312;BME280;15572;48.810;9.148;2023-10-19T08:45:22;96233.56;;;13.40;100.00
28312;BME280;15572;48.810;9.148;2023-10-19T08:50:20;96226.56;;;13.49;100.00
28312;BME280;15572;48.810;9.148;2023-10-19T08:55:19;96226.06;;;13.63;100.00
28312;BME280;15572;48.810;9.148;2023-10-19T09:00:16;96226.22;;;13.83;100.00
28312;BME280;15572;48.810;9.148;2023-10-19T09:05:14;96221.69;;;14.04;100.00
28312;BME280;15572;48.810;9.148;2023-10-19T09:10:19;96217.41;;;14.28;100.00
28312;BME280;15572;48.810;9.148;2023-10-19T09:15:21;96218.31;;;14.49;100.00
28312;BME280;15572;48.810;9.148;2023-10-19T09:20:18;96217.56;;;14.63;100.00
28312;BME280;15572;48.810;9.148;2023-10-19T09:25:24;96221.66;;;14.81;100.00
28312;BME280;15572;48.810;9.148;2023-10-19T09:30:21;96217.03;;;15.02;100.00
28312;BME280;15572;48.810;9.148;2023-10-19T09:35:19;96208.59;;;15.24;100.00
28312;BME280;15572;48.810;9.148;2023-10-19T09:40:16;96193.59;;;15.46;100.00
28312;BME280;15572;48.810;9.148;2023-10-19T09:45:19;96184.59;;;15.61;100.00
28312;BME280;15572;48.810;9.148;2023-10-19T09:50:15;96189.47;;;15.74;100.00
28312;BME280;15572;48.810;9.148;2023-10-19T09:55:16;96199.00;;;15.77;100.00
28312;BME280;15572;48.810;9.148;2023-10-19T10:00:16;96187.25;;;15.81;100.00
28312;BME280;15572;48.810;9.148;2023-10-19T10:05:46;96194.34;;;15.87;100.00
28312;BME280;15572;48.810;9.148;2023-10-19T10:10:43;96198.69;;;15.88;100.00
28312;BME280;15572;48.810;9.148;2023-10-19T10:15:41;96189.69;;;15.93;100.00
28312;BME280;15572;48.810;9.148;2023-10-19T10:20:38;96183.94;;;15.99;100.00
28312;BME280;15572;48.810;9.148;2023-10-19T10:25:35;96177.34;;;16.11;100.00
28312;BME280;15572;48.810;9.148;2023-10-19T10:30:32;96171.84;;;16.21;100.00
28312;BME280;15572;48.810;9.148;2023-10-19T10:35:54;96163.88;;;16.34;100.00
28312;BME280;15572;48.810;9.148;2023-10-19T10:40:51;96171.44;;;16.42;100.00
28312;BME280;15572;48.810;9.148;2023-10-19T10:45:48;96160.22;;;16.49;100.00
28312;BME280;15572;48.810;9.148;2023-10-19T10:50:44;96167.84;;;16.52;100.00
28312;BME280;15572;48.810;9.148;2023-10-19T10:55:43;96171.41;;;16.48;100.00
28312;BME280;15572;48.810;9.148;2023-10-19T11:00:42;96180.22;;;16.39;100.00
28312;BME280;15572;48.810;9.148;2023-10-19T11:05:38;96181.59;;;16.32;100.00
28312;BME280;15572;48.810;9.148;2023-10-19T11:10:35;96175.63;;;16.25;100.00
28312;BME280;15572;48.810;9.148;2023-10-19T11:15:34;96173.50;;;16.17;100.00
28312;BME280;15572;48.810;9.148;2023-10-19T11:20:30;96171.31;;;16.14;100.00
28312;BME280;15572;48.810;9.148;2023-10-19T11:25:27;96173.25;;;16.13;100.00
28312;BME280;15572;48.810;9.148;2023-10-19T11:30:25;96173.56;;;16.07;100.00
28312;BME280;15572;48.810;9.148;2023-10-19T11:35:24;96170.53;;;16.13;100.00
28312;BME280;15572;48.810;9.148;2023-10-19T11:40:21;96176.72;;;16.29;100.00
28312;BME280;15572;48.810;9.148;2023-10-19T11:45:18;96169.19;;;16.06;100.00
28312;BME280;15572;48.810;9.148;2023-10-19T11:50:15;96170.34;;;15.89;100.00
28312;BME280;15572;48.810;9.148;2023-10-19T11:55:13;96157.56;;;15.80;100.00
28312;BME280;15572;48.810;9.148;2023-10-19T12:00:11;96130.59;;;15.68;100.00
28312;BME280;15572;48.810;9.148;2023-10-19T12:05:17;96123.25;;;15.58;100.00
28312;BME280;15572;48.810;9.148;2023-10-19T12:10:14;96110.97;;;15.51;100.00
28312;BME280;15572;48.810;9.148;2023-10-19T12:15:11;96115.34;;;15.47;100.00
28312;BME280;15572;48.810;9.148;2023-10-19T12:20:08;96099.00;;;15.42;100.00
28312;BME280;15572;48.810;9.148;2023-10-19T12:25:09;96090.03;;;15.36;100.00
28312;BME280;15572;48.810;9.148;2023-10-19T12:30:08;96085.13;;;15.33;100.00
28312;BME280;15572;48.810;9.148;2023-10-19T12:35:15;96091.69;;;15.32;100.00
28312;BME280;15572;48.810;9.148;2023-10-19T12:40:15;96075.63;;;15.26;100.00
28312;BME280;15572;48.810;9.148;2023-10-19T12:45:24;96069.63;;;15.18;100.00
28312;BME280;15572;48.810;9.148;2023-10-19T12:50:21;96069.13;;;15.11;100.00
28312;BME280;15572;48.810;9.148;2023-10-19T12:55:19;96082.47;;;15.08;100.00
28312;BME280;15572;48.810;9.148;2023-10-19T13:00:16;96092.84;;;15.06;100.00
28312;BME280;15572;48.810;9.148;2023-10-19T13:05:26;96092.28;;;15.04;100.00
28312;BME280;15572;48.810;9.148;2023-10-19T13:10:22;96095.56;;;15.01;100.00
28312;BME280;15572;48.810;9.148;2023-10-19T13:15:19;96097.16;;;15.02;100.00
28312;BME280;15572;48.810;9.148;2023-10-19T13:20:15;96086.56;;;15.05;100.00
28312;BME280;15572;48.810;9.148;2023-10-19T13:25:15;96077.28;;;15.06;100.00
28312;BME280;15572;48.810;9.148;2023-10-19T13:30:12;96075.09;;;15.13;100.00
28312;BME280;15572;48.810;9.148;2023-10-19T13:35:09;96059.03;;;15.17;100.00
28312;BME280;15572;48.810;9.148;2023-10-19T13:40:06;96064.19;;;15.18;100.00
28312;BME280;15572;48.810;9.148;2023-10-19T13:45:06;96063.63;;;15.22;100.00
28312;BME280;15572;48.810;9.148;2023-10-19T13:50:03;96053.28;;;15.18;100.00
28312;BME280;15572;48.810;9.148;2023-10-19T13:55:02;96048.41;;;15.15;100.00
28312;BME280;15572;48.810;9.148;2023-10-19T13:59:59;96042.13;;;15.15;100.00
28312;BME280;15572;48.810;9.148;2023-10-19T14:04:57;96034.19;;;15.18;100.00
28312;BME280;15572;48.810;9.148;2023-10-19T14:09:55;96018.91;;;15.23;100.00
28312;BME280;15572;48.810;9.148;2023-10-19T14:14:52;96011.88;;;15.22;100.00
28312;BME280;15572;48.810;9.148;2023-10-19T14:19:48;96015.44;;;15.17;100.00
28312;BME280;15572;48.810;9.148;2023-10-19T14:24:46;96019.78;;;15.13;100.00
28312;BME280;15572;48.810;9.148;2023-10-19T14:29:43;96007.53;;;15.10;100.00
28312;BME280;15572;48.810;9.148;2023-10-19T14:34:39;96002.09;;;15.05;100.00
28312;BME280;15572;48.810;9.148;2023-10-19T14:39:35;95989.03;;;15.02;100.00
28312;BME280;15572;48.810;9.148;2023-10-19T14:44:33;95972.97;;;15.01;100.00
28312;BME280;15572;48.810;9.148;2023-10-19T14:49:30;95969.44;;;15.00;100.00
28312;BME280;15572;48.810;9.148;2023-10-19T14:54:26;95976.22;;;14.98;100.00
28312;BME280;15572;48.810;9.148;2023-10-19T14:59:24;95966.19;;;14.93;100.00
28312;BME280;15572;48.810;9.148;2023-10-19T15:04:21;95954.22;;;14.89;100.00
28312;BME280;15572;48.810;9.148;2023-10-19T15:09:18;95934.59;;;14.87;100.00
28312;BME280;15572;48.810;9.148;2023-10-19T15:14:20;95922.63;;;14.88;100.00
28312;BME280;15572;48.810;9.148;2023-10-19T15:19:17;95911.16;;;14.91;100.00
28312;BME280;15572;48.810;9.148;2023-10-19T15:24:15;95906.53;;;14.92;100.00
28312;BME280;15572;48.810;9.148;2023-10-19T15:29:12;95901.66;;;14.89;100.00
28312;BME280;15572;48.810;9.148;2023-10-19T15:34:09;95901.91;;;14.87;100.00
28312;BME280;15572;48.810;9.148;2023-10-19T15:39:05;95899.47;;;14.86;100.00
28312;BME280;15572;48.810;9.148;2023-10-19T15:44:06;95882.88;;;14.82;100.00
28312;BME280;15572;48.810;9.148;2023-10-19T15:49:03;95862.47;;;14.80;100.00
28312;BME280;15572;48.810;9.148;2023-10-19T15:53:59;95862.47;;;14.74;100.00
28312;BME280;15572;48.810;9.148;2023-10-19T15:58:57;95860.59;;;14.70;100.00
28312;BME280;15572;48.810;9.148;2023-10-19T16:03:55;95864.97;;;14.66;100.00
28312;BME280;15572;48.810;9.148;2023-10-19T16:08:51;95866.03;;;14.65;100.00
28312;BME280;15572;48.810;9.148;2023-10-19T16:13:48;95881.88;;;14.63;100.00
28312;BME280;15572;48.810;9.148;2023-10-19T16:18:44;95885.09;;;14.65;100.00
28312;BME280;15572;48.810;9.148;2023-10-19T16:23:42;95882.13;;;14.66;100.00
28312;BME280;15572;48.810;9.148;2023-10-19T16:28:38;95896.28;;;14.68;100.00
28312;BME280;15572;48.810;9.148;2023-10-19T16:33:35;95884.84;;;14.66;100.00
28312;BME280;15572;48.810;9.148;2023-10-19T16:38:32;95889.72;;;14.64;100.00
28312;BME280;15572;48.810;9.148;2023-10-19T16:43:30;95888.91;;;14.64;100.00
28312;BME280;15572;48.810;9.148;2023-10-19T16:48:26;95901.44;;;14.65;100.00
28312;BME280;15572;48.810;9.148;2023-10-19T16:53:23;95904.72;;;14.67;100.00
28312;BME280;15572;48.810;9.148;2023-10-19T16:58:19;95906.06;;;14.64;100.00
28312;BME280;15572;48.810;9.148;2023-10-19T17:03:17;95908.53;;;14.66;100.00
28312;BME280;15572;48.810;9.148;2023-10-19T17:08:14;95894.09;;;14.65;100.00
28312;BME280;15572;48.810;9.148;2023-10-19T17:13:10;95856.53;;;14.62;100.00
28312;BME280;15572;48.810;9.148;2023-10-19T17:18:07;95848.91;;;14.59;100.00
28312;BME280;15572;48.810;9.148;2023-10-19T17:23:05;95849.22;;;14.58;100.00
28312;BME280;15572;48.810;9.148;2023-10-19T17:28:02;95856.00;;;14.60;100.00
28312;BME280;15572;48.810;9.148;2023-10-19T17:32:58;95855.44;;;14.58;100.00
28312;BME280;15572;48.810;9.148;2023-10-19T17:37:55;95898.44;;;14.66;100.00
28312;BME280;15572;48.810;9.148;2023-10-19T17:42:54;95879.38;;;14.71;100.00
28312;BME280;15572;48.810;9.148;2023-10-19T17:47:51;95860.88;;;14.68;100.00
28312;BME280;15572;48.810;9.148;2023-10-19T17:52:47;95846.47;;;14.63;100.00
28312;BME280;15572;48.810;9.148;2023-10-19T17:57:48;95848.91;;;14.59;100.00
28312;BME280;15572;48.810;9.148;2023-10-19T18:02:45;95846.22;;;14.54;100.00
28312;BME280;15572;48.810;9.148;2023-10-19T18:07:42;95846.22;;;14.49;100.00
28312;BME280;15572;48.810;9.148;2023-10-19T18:12:39;95848.69;;;14.46;100.00
28312;BME280;15572;48.810;9.148;2023-10-19T18:17:35;95855.50;;;14.43;100.00
28312;BME280;15572;48.810;9.148;2023-10-19T18:22:33;95857.69;;;14.41;100.00
28312;BME280;15572;48.810;9.148;2023-10-19T18:27:30;95848.44;;;14.37;100.00
28312;BME280;15572;48.810;9.148;2023-10-19T18:32:27;95835.38;;;14.34;100.00
28312;BME280;15572;48.810;9.148;2023-10-19T18:37:23;95833.22;;;14.31;100.00
28312;BME280;15572;48.810;9.148;2023-10-19T18:42:21;95828.03;;;14.29;100.00
28312;BME280;15572;48.810;9.148;2023-10-19T18:47:17;95841.09;;;14.27;100.00
28312;BME280;15572;48.810;9.148;2023-10-19T18:52:14;95827.47;;;14.27;100.00
28312;BME280;15572;48.810;9.148;2023-10-19T18:57:11;95838.94;;;14.24;100.00
28312;BME280;15572;48.810;9.148;2023-10-19T19:02:09;95829.13;;;14.23;100.00
28312;BME280;15572;48.810;9.148;2023-10-19T19:07:06;95813.06;;;14.22;100.00
28312;BME280;15572;48.810;9.148;2023-10-19T19:12:03;95804.41;;;14.20;100.00
28312;BME280;15572;48.810;9.148;2023-10-19T19:17:00;95802.22;;;14.17;100.00
28312;BME280;15572;48.810;9.148;2023-10-19T19:22:00;95810.13;;;14.13;100.00
28312;BME280;15572;48.810;9.148;2023-10-19T19:26:57;95810.66;;;14.10;100.00
28312;BME280;15572;48.810;9.148;2023-10-19T19:31:53;95821.53;;;14.05;100.00
28312;BME280;15572;48.810;9.148;2023-10-19T19:36:50;95825.66;;;14.03;100.00
28312;BME280;15572;48.810;9.148;2023-10-19T19:41:48;95808.78;;;14.01;100.00
28312;BME280;15572;48.810;9.148;2023-10-19T19:46:44;95802.00;;;13.98;100.00
28312;BME280;15572;48.810;9.148;2023-10-19T19:51:41;95800.91;;;13.99;100.00
28312;BME280;15572;48.810;9.148;2023-10-19T19:56:38;95801.44;;;13.96;100.00
28312;BME280;15572;48.810;9.148;2023-10-19T20:01:36;95788.41;;;13.98;100.00
28312;BME280;15572;48.810;9.148;2023-10-19T20:06:33;95787.59;;;13.98;100.00
28312;BME280;15572;48.810;9.148;2023-10-19T20:11:29;95788.41;;;13.98;100.00
28312;BME280;15572;48.810;9.148;2023-10-19T20:16:26;95792.19;;;13.97;100.00
28312;BME280;15572;48.810;9.148;2023-10-19T20:21:23;95789.47;;;13.97;100.00
28312;BME280;15572;48.810;9.148;2023-10-19T20:26:20;95778.88;;;13.96;100.00
28312;BME280;15572;48.810;9.148;2023-10-19T20:31:17;95774.81;;;13.93;100.00
28312;BME280;15572;48.810;9.148;2023-10-19T20:36:13;95771.28;;;13.93;100.00
28312;BME280;15572;48.810;9.148;2023-10-19T20:41:11;95746.50;;;13.89;100.00
28312;BME280;15572;48.810;9.148;2023-10-19T20:46:08;95726.16;;;13.86;100.00
28312;BME280;15572;48.810;9.148;2023-10-19T20:51:13;95684.28;;;13.82;100.00
28312;BME280;15572;48.810;9.148;2023-10-19T20:56:11;95680.75;;;13.82;100.00
28312;BME280;15572;48.810;9.148;2023-10-19T21:01:08;95672.88;;;13.80;100.00
28312;BME280;15572;48.810;9.148;2023-10-19T21:06:11;95656.81;;;13.79;100.00
28312;BME280;15572;48.810;9.148;2023-10-19T21:11:17;95651.94;;;13.76;100.00
28312;BME280;15572;48.810;9.148;2023-10-19T21:16:14;95662.84;;;13.76;100.00
28312;BME280;15572;48.810;9.148;2023-10-19T21:21:11;95654.13;;;13.74;100.00
28312;BME280;15572;48.810;9.148;2023-10-19T21:26:07;95640.00;;;13.72;100.00
28312;BME280;15572;48.810;9.148;2023-10-19T21:31:07;95628.59;;;13.70;100.00
28312;BME280;15572;48.810;9.148;2023-10-19T21:36:05;95614.44;;;13.68;100.00
28312;BME280;15572;48.810;9.148;2023-10-19T21:41:02;95612.31;;;13.65;100.00
28312;BME280;15572;48.810;9.148;2023-10-19T21:46:00;95594.63;;;13.62;100.00
28312;BME280;15572;48.810;9.148;2023-10-19T21:50:59;95574.28;;;13.60;100.00
28312;BME280;15572;48.810;9.148;2023-10-19T21:55:55;95568.28;;;13.58;100.00
28312;BME280;15572;48.810;9.148;2023-10-19T22:00:52;95555.28;;;13.55;100.00
28312;BME280;15572;48.810;9.148;2023-10-19T22:06:01;95541.13;;;13.53;100.00
28312;BME280;15572;48.810;9.148;2023-10-19T22:10:57;95550.38;;;13.52;100.00
28312;BME280;15572;48.810;9.148;2023-10-19T22:15:55;95547.41;;;13.48;100.00
28312;BME280;15572;48.810;9.148;2023-10-19T22:20:52;95518.91;;;13.45;100.00
28312;BME280;15572;48.810;9.148;2023-10-19T22:25:51;95532.50;;;13.45;100.00
28312;BME280;15572;48.810;9.148;2023-10-19T22:30:48;95515.66;;;13.43;100.00
28312;BME280;15572;48.810;9.148;2023-10-19T22:35:48;95502.31;;;13.42;100.00
28312;BME280;15572;48.810;9.148;2023-10-19T22:40:45;95501.50;;;13.41;100.00
28312;BME280;15572;48.810;9.148;2023-10-19T22:45:44;95496.06;;;13.41;100.00
28312;BME280;15572;48.810;9.148;2023-10-19T22:50:41;95484.97;;;13.38;100.00
28312;BME280;15572;48.810;9.148;2023-10-19T22:55:37;95473.84;;;13.34;100.00
28312;BME280;15572;48.810;9.148;2023-10-19T23:00:34;95485.81;;;13.33;100.00
28312;BME280;15572;48.810;9.148;2023-10-19T23:05:31;95477.66;;;13.33;100.00
28312;BME280;15572;48.810;9.148;2023-10-19T23:10:28;95483.63;;;13.35;100.00
28312;BME280;15572;48.810;9.148;2023-10-19T23:15:27;95458.38;;;13.35;100.00
28312;BME280;15572;48.810;9.148;2023-10-19T23:20:42;95452.63;;;13.36;100.00
28312;BME280;15572;48.810;9.148;2023-10-19T23:25:45;95450.72;;;13.37;100.00
28312;BME280;15572;48.810;9.148;2023-10-19T23:30:47;95448.84;;;13.37;100.00
28312;BME280;15572;48.810;9.148;2023-10-19T23:35:45;95426.59;;;13.35;100.00
28312;BME280;15572;48.810;9.148;2023-10-19T23:40:41;95426.59;;;13.35;100.00
28312;BME280;15572;48.810;9.148;2023-10-19T23:45:37;95408.91;;;13.33;100.00
28312;BME280;15572;48.810;9.148;2023-10-19T23:50:34;95411.63;;;13.33;100.00
28312;BME280;15572;48.810;9.148;2023-10-19T23:55:33;95400.78;;;13.33;100.00
